sensor_id;sensor_type;location;lat;lon;timestamp;pressure;altitude;pressure_sealevel;temperature;humidity
31585;BME280;18191;51.288;12.390;2022-11-04T00:01:58;49171.97;;;-144.47;89.33
31585;BME280;18191;51.288;12.390;2022-11-04T00:06:48;49183.91;;;-144.47;89.75
31585;BME280;18191;51.288;12.390;2022-11-04T00:11:38;49158.03;;;-144.47;91.25
31585;BME280;18191;51.288;12.390;2022-11-04T00:16:47;49191.84;;;-144.47;90.91
31585;BME280;18191;51.288;12.390;2022-11-04T00:22:03;49164.00;;;-144.47;90.79
31585;BME280;18191;51.288;12.390;2022-11-04T00:27:13;49211.75;;;-144.47;90.49
31585;BME280;18191;51.288;12.390;2022-11-04T00:32:22;49150.06;;;-144.47;90.40
31585;BME280;18191;51.288;12.390;2022-11-04T00:37:34;49185.88;;;-144.47;90.52
31585;BME280;18191;51.288;12.390;2022-11-04T00:42:24;49173.94;;;-144.47;90.86
31585;BME280;18191;51.288;12.390;2022-11-04T00:47:14;49150.06;;;-144.47;90.38
31585;BME280;18191;51.288;12.390;2022-11-04T00:52:05;49167.97;;;-144.47;90.15
31585;BME280;18191;51.288;12.390;2022-11-04T00:56:55;49152.06;;;-144.47;89.67
31585;BME280;18191;51.288;12.390;2022-11-04T01:01:45;49187.88;;;-144.47;90.10
31585;BME280;18191;51.288;12.390;2022-11-04T01:06:35;49140.13;;;-144.47;89.94
31585;BME280;18191;51.288;12.390;2022-11-04T01:11:26;49191.84;;;-144.47;90.32
31585;BME280;18191;51.288;12.390;2022-11-04T01:16:20;49144.09;;;-144.47;90.94
31585;BME280;18191;51.288;12.390;2022-11-04T01:21:12;49166.00;;;-144.47;90.99
31585;BME280;18191;51.288;12.390;2022-11-04T01:26:11;49158.03;;;-144.47;91.33
31585;BME280;18191;51.288;12.390;2022-11-04T01:31:05;49150.06;;;-144.47;91.52
31585;BME280;18191;51.288;12.390;2022-11-04T01:35:58;49211.75;;;-144.47;91.60
31585;BME280;18191;51.288;12.390;2022-11-04T01:40:48;49199.81;;;-144.47;91.06
31585;BME280;18191;51.288;12.390;2022-11-04T01:45:38;49167.97;;;-144.47;92.11
31585;BME280;18191;51.288;12.390;2022-11-04T01:50:29;49223.69;;;-144.47;92.33
31585;BME280;18191;51.288;12.390;2022-11-04T01:55:25;49169.97;;;-144.47;92.24
31585;BME280;18191;51.288;12.390;2022-11-04T02:00:16;49175.94;;;-144.47;92.42
31585;BME280;18191;51.288;12.390;2022-11-04T02:05:07;49179.91;;;-144.47;91.56
31585;BME280;18191;51.288;12.390;2022-11-04T02:09:57;49162.00;;;-144.47;90.88
31585;BME280;18191;51.288;12.390;2022-11-04T02:14:47;49142.13;;;-144.47;91.16
31585;BME280;18191;51.288;12.390;2022-11-04T02:34:35;49223.69;;;-144.47;90.52
31585;BME280;18191;51.288;12.390;2022-11-04T02:49:38;49164.00;;;-144.47;91.46
31585;BME280;18191;51.288;12.390;2022-11-04T02:54:32;49160.03;;;-144.47;90.71
31585;BME280;18191;51.288;12.390;2022-11-04T02:59:27;49150.06;;;-144.47;91.98
31585;BME280;18191;51.288;12.390;2022-11-04T03:04:20;49175.94;;;-144.47;92.24
31585;BME280;18191;51.288;12.390;2022-11-04T03:09:13;49171.97;;;-144.47;92.71
31585;BME280;18191;51.288;12.390;2022-11-04T03:14:09;49148.09;;;-144.47;93.40
31585;BME280;18191;51.288;12.390;2022-11-04T03:19:07;49201.81;;;-144.47;93.81
31585;BME280;18191;51.288;12.390;2022-11-04T03:24:00;49187.88;;;-144.47;94.90
31585;BME280;18191;51.288;12.390;2022-11-04T03:28:55;49156.03;;;-144.47;95.85
31585;BME280;18191;51.288;12.390;2022-11-04T03:33:49;49164.00;;;-144.47;96.24
31585;BME280;18191;51.288;12.390;2022-11-04T03:38:40;49187.88;;;-144.47;96.64
31585;BME280;18191;51.288;12.390;2022-11-04T03:43:30;49179.91;;;-144.47;97.82
31585;BME280;18191;51.288;12.390;2022-11-04T03:48:21;49183.91;;;-144.47;98.48
31585;BME280;18191;51.288;12.390;2022-11-04T03:53:13;49173.94;;;-144.47;99.00
31585;BME280;18191;51.288;12.390;2022-11-04T03:58:21;49175.94;;;-144.47;99.24
31585;BME280;18191;51.288;12.390;2022-11-04T04:03:17;49130.19;;;-144.47;98.75
31585;BME280;18191;51.288;12.390;2022-11-04T04:13:01;49175.94;;;-144.47;99.30
31585;BME280;18191;51.288;12.390;2022-11-04T04:17:58;49191.84;;;-144.47;99.64
31585;BME280;18191;51.288;12.390;2022-11-04T04:22:51;49175.94;;;-144.47;99.47
31585;BME280;18191;51.288;12.390;2022-11-04T04:27:43;49166.00;;;-144.47;99.78
31585;BME280;18191;51.288;12.390;2022-11-04T04:32:36;49167.97;;;-144.47;99.85
31585;BME280;18191;51.288;12.390;2022-11-04T04:37:28;49191.84;;;-144.47;100.00
31585;BME280;18191;51.288;12.390;2022-11-04T04:42:18;49195.84;;;-144.47;100.00
31585;BME280;18191;51.288;12.390;2022-11-04T04:47:38;49175.94;;;-144.47;100.00
31585;BME280;18191;51.288;12.390;2022-11-04T04:52:30;49160.03;;;-144.47;100.00
31585;BME280;18191;51.288;12.390;2022-11-04T04:57:21;49187.88;;;-144.47;99.86
31585;BME280;18191;51.288;12.390;2022-11-04T05:02:12;49215.72;;;-144.47;100.00
31585;BME280;18191;51.288;12.390;2022-11-04T05:07:02;49191.84;;;-144.47;99.73
31585;BME280;18191;51.288;12.390;2022-11-04T05:11:52;49144.09;;;-144.47;100.00
31585;BME280;18191;51.288;12.390;2022-11-04T05:16:42;49171.97;;;-144.47;99.43
31585;BME280;18191;51.288;12.390;2022-11-04T05:21:32;49158.03;;;-144.47;98.97
31585;BME280;18191;51.288;12.390;2022-11-04T05:26:23;49160.03;;;-144.47;98.88
31585;BME280;18191;51.288;12.390;2022-11-04T05:31:13;49193.84;;;-144.47;98.86
31585;BME280;18191;51.288;12.390;2022-11-04T05:36:13;49167.97;;;-144.47;98.84
31585;BME280;18191;51.288;12.390;2022-11-04T05:41:04;49136.16;;;-144.47;98.70
31585;BME280;18191;51.288;12.390;2022-11-04T05:45:54;49169.97;;;-144.47;99.04
31585;BME280;18191;51.288;12.390;2022-11-04T05:50:46;49183.91;;;-144.47;99.36
31585;BME280;18191;51.288;12.390;2022-11-04T05:55:37;49164.00;;;-144.47;99.34
31585;BME280;18191;51.288;12.390;2022-11-04T06:00:27;49162.00;;;-144.47;99.19
31585;BME280;18191;51.288;12.390;2022-11-04T06:05:17;49191.84;;;-144.47;99.28
31585;BME280;18191;51.288;12.390;2022-11-04T06:10:08;49199.81;;;-144.47;99.19
31585;BME280;18191;51.288;12.390;2022-11-04T06:14:58;49179.91;;;-144.47;99.40
31585;BME280;18191;51.288;12.390;2022-11-04T06:19:48;49171.97;;;-144.47;99.85
31585;BME280;18191;51.288;12.390;2022-11-04T06:24:39;49150.06;;;-144.47;99.87
31585;BME280;18191;51.288;12.390;2022-11-04T06:29:29;49167.97;;;-144.47;100.00
31585;BME280;18191;51.288;12.390;2022-11-04T06:34:19;49179.91;;;-144.47;99.88
31585;BME280;18191;51.288;12.390;2022-11-04T06:39:09;49171.97;;;-144.47;99.71
31585;BME280;18191;51.288;12.390;2022-11-04T06:44:00;49164.00;;;-144.47;99.55
31585;BME280;18191;51.288;12.390;2022-11-04T06:48:50;49167.97;;;-144.47;99.28
31585;BME280;18191;51.288;12.390;2022-11-04T06:53:40;49179.91;;;-144.47;99.60
31585;BME280;18191;51.288;12.390;2022-11-04T06:58:30;49179.91;;;-144.47;99.15
31585;BME280;18191;51.288;12.390;2022-11-04T07:03:20;49195.84;;;-144.47;98.92
31585;BME280;18191;51.288;12.390;2022-11-04T07:08:10;49199.81;;;-144.47;98.72
31585;BME280;18191;51.288;12.390;2022-11-04T07:13:01;49187.88;;;-144.47;98.46
31585;BME280;18191;51.288;12.390;2022-11-04T07:17:51;49164.00;;;-144.47;98.42
31585;BME280;18191;51.288;12.390;2022-11-04T07:22:41;49167.97;;;-144.47;98.39
31585;BME280;18191;51.288;12.390;2022-11-04T07:27:31;49156.03;;;-144.47;98.09
31585;BME280;18191;51.288;12.390;2022-11-04T07:32:21;49183.91;;;-144.47;98.12
31585;BME280;18191;51.288;12.390;2022-11-04T07:37:12;49140.13;;;-144.47;97.98
31585;BME280;18191;51.288;12.390;2022-11-04T07:42:02;49223.69;;;-144.47;97.76
31585;BME280;18191;51.288;12.390;2022-11-04T07:46:52;49171.97;;;-144.47;97.37
31585;BME280;18191;51.288;12.390;2022-11-04T07:51:42;49162.00;;;-144.47;97.69
31585;BME280;18191;51.288;12.390;2022-11-04T07:56:32;49171.97;;;-144.47;96.81
31585;BME280;18191;51.288;12.390;2022-11-04T08:01:23;49183.91;;;-144.47;95.23
31585;BME280;18191;51.288;12.390;2022-11-04T08:06:13;49160.03;;;-144.47;95.72
31585;BME280;18191;51.288;12.390;2022-11-04T08:11:08;49138.16;;;-144.47;95.49
31585;BME280;18191;51.288;12.390;2022-11-04T08:16:02;49171.97;;;-144.47;95.73
31585;BME280;18191;51.288;12.390;2022-11-04T08:20:53;49175.94;;;-144.47;95.22
31585;BME280;18191;51.288;12.390;2022-11-04T08:25:43;49148.09;;;-144.47;94.02
31585;BME280;18191;51.288;12.390;2022-11-04T08:30:33;49175.94;;;-144.47;94.45
31585;BME280;18191;51.288;12.390;2022-11-04T08:35:23;49175.94;;;-144.47;93.96
31585;BME280;18191;51.288;12.390;2022-11-04T08:40:14;49144.09;;;-144.47;93.58
31585;BME280;18191;51.288;12.390;2022-11-04T08:45:04;49197.81;;;-144.47;92.36
31585;BME280;18191;51.288;12.390;2022-11-04T08:49:54;49207.78;;;-144.47;89.74
31585;BME280;18191;51.288;12.390;2022-11-04T08:54:45;49203.78;;;-144.47;88.99
31585;BME280;18191;51.288;12.390;2022-11-04T08:59:35;49144.09;;;-144.47;86.67
31585;BME280;18191;51.288;12.390;2022-11-04T09:04:25;49177.94;;;-144.47;87.67
31585;BME280;18191;51.288;12.390;2022-11-04T09:09:16;49195.84;;;-144.47;88.44
31585;BME280;18191;51.288;12.390;2022-11-04T09:14:08;49144.09;;;-144.47;85.06
31585;BME280;18191;51.288;12.390;2022-11-04T09:18:58;49231.63;;;-144.47;85.40
31585;BME280;18191;51.288;12.390;2022-11-04T09:23:49;49171.97;;;-144.47;85.36
31585;BME280;18191;51.288;12.390;2022-11-04T09:28:39;49156.03;;;-144.47;82.51
31585;BME280;18191;51.288;12.390;2022-11-04T09:33:29;49156.03;;;-144.47;84.48
31585;BME280;18191;51.288;12.390;2022-11-04T09:38:20;49175.94;;;-144.47;83.82
31585;BME280;18191;51.288;12.390;2022-11-04T09:48:27;49193.84;;;-144.47;86.53
31585;BME280;18191;51.288;12.390;2022-11-04T09:53:24;49171.97;;;-144.47;85.89
31585;BME280;18191;51.288;12.390;2022-11-04T09:58:16;49160.03;;;-144.47;86.04
31585;BME280;18191;51.288;12.390;2022-11-04T10:13:10;49160.03;;;-144.47;86.15
31585;BME280;18191;51.288;12.390;2022-11-04T10:18:06;49171.97;;;-144.47;83.87
31585;BME280;18191;51.288;12.390;2022-11-04T10:23:10;49164.00;;;-144.47;82.82
31585;BME280;18191;51.288;12.390;2022-11-04T10:28:03;49175.94;;;-144.47;83.48
31585;BME280;18191;51.288;12.390;2022-11-04T10:33:02;49169.97;;;-144.47;84.08
31585;BME280;18191;51.288;12.390;2022-11-04T10:37:59;49179.91;;;-144.47;84.29
31585;BME280;18191;51.288;12.390;2022-11-04T10:42:50;49164.00;;;-144.47;84.51
31585;BME280;18191;51.288;12.390;2022-11-04T10:47:50;49183.91;;;-144.47;84.78
31585;BME280;18191;51.288;12.390;2022-11-04T10:52:45;49164.00;;;-144.47;83.46
31585;BME280;18191;51.288;12.390;2022-11-04T10:57:35;49197.81;;;-144.47;83.07
31585;BME280;18191;51.288;12.390;2022-11-04T11:02:45;49191.84;;;-144.47;85.19
31585;BME280;18191;51.288;12.390;2022-11-04T11:07:36;49187.88;;;-144.47;85.55
31585;BME280;18191;51.288;12.390;2022-11-04T11:12:26;49211.75;;;-144.47;85.13
31585;BME280;18191;51.288;12.390;2022-11-04T11:22:28;49177.94;;;-144.47;85.58
31585;BME280;18191;51.288;12.390;2022-11-04T11:27:20;49203.78;;;-144.47;85.20
31585;BME280;18191;51.288;12.390;2022-11-04T11:32:45;49199.81;;;-144.47;83.65
31585;BME280;18191;51.288;12.390;2022-11-04T11:37:32;49166.00;;;-144.47;85.42
31585;BME280;18191;51.288;12.390;2022-11-04T11:42:22;49179.91;;;-144.47;86.16
31585;BME280;18191;51.288;12.390;2022-11-04T11:47:18;49191.84;;;-144.47;85.52
31585;BME280;18191;51.288;12.390;2022-11-04T11:52:15;49183.91;;;-144.47;85.31
31585;BME280;18191;51.288;12.390;2022-11-04T11:57:20;49175.94;;;-144.47;85.86
31585;BME280;18191;51.288;12.390;2022-11-04T12:02:27;49207.78;;;-144.47;86.39
31585;BME280;18191;51.288;12.390;2022-11-04T12:32:26;49164.00;;;-144.47;81.06
31585;BME280;18191;51.288;12.390;2022-11-04T12:37:35;49183.91;;;-144.47;80.69
31585;BME280;18191;51.288;12.390;2022-11-04T12:42:35;49162.00;;;-144.47;80.27
31585;BME280;18191;51.288;12.390;2022-11-04T12:52:38;49166.00;;;-144.47;79.27
31585;BME280;18191;51.288;12.390;2022-11-04T12:57:35;49146.09;;;-144.47;77.20
31585;BME280;18191;51.288;12.390;2022-11-04T13:07:24;49181.91;;;-144.47;78.54
31585;BME280;18191;51.288;12.390;2022-11-04T13:12:35;49120.25;;;-144.47;78.24
31585;BME280;18191;51.288;12.390;2022-11-04T13:17:37;49140.13;;;-144.47;76.43
31585;BME280;18191;51.288;12.390;2022-11-04T13:22:32;49150.06;;;-144.47;75.70
31585;BME280;18191;51.288;12.390;2022-11-04T13:27:24;49171.97;;;-144.47;77.60
31585;BME280;18191;51.288;12.390;2022-11-04T13:32:29;49177.94;;;-144.47;79.66
31585;BME280;18191;51.288;12.390;2022-11-04T13:37:25;49104.31;;;-144.47;79.03
31585;BME280;18191;51.288;12.390;2022-11-04T13:47:31;49164.00;;;-144.47;77.51
31585;BME280;18191;51.288;12.390;2022-11-04T13:52:24;49171.97;;;-144.47;79.06
31585;BME280;18191;51.288;12.390;2022-11-04T13:57:21;49183.91;;;-144.47;79.94
31585;BME280;18191;51.288;12.390;2022-11-04T14:07:11;49171.97;;;-144.47;80.41
31585;BME280;18191;51.288;12.390;2022-11-04T14:17:00;49183.91;;;-144.47;79.03
31585;BME280;18191;51.288;12.390;2022-11-04T14:22:15;49167.97;;;-144.47;80.43
31585;BME280;18191;51.288;12.390;2022-11-04T14:27:03;49175.94;;;-144.47;78.65
31585;BME280;18191;51.288;12.390;2022-11-04T14:31:55;49201.81;;;-144.47;79.99
31585;BME280;18191;51.288;12.390;2022-11-04T14:36:46;49175.94;;;-144.47;81.37
31585;BME280;18191;51.288;12.390;2022-11-04T14:46:30;49167.97;;;-144.47;80.85
31585;BME280;18191;51.288;12.390;2022-11-04T14:51:28;49191.84;;;-144.47;83.37
31585;BME280;18191;51.288;12.390;2022-11-04T14:56:20;49164.00;;;-144.47;80.43
31585;BME280;18191;51.288;12.390;2022-11-04T15:01:10;49191.84;;;-144.47;82.66
31585;BME280;18191;51.288;12.390;2022-11-04T15:06:05;49211.75;;;-144.47;83.80
31585;BME280;18191;51.288;12.390;2022-11-04T15:10:57;49185.88;;;-144.47;84.28
31585;BME280;18191;51.288;12.390;2022-11-04T15:15:48;49173.94;;;-144.47;85.57
31585;BME280;18191;51.288;12.390;2022-11-04T15:20:44;49199.81;;;-144.47;86.67
31585;BME280;18191;51.288;12.390;2022-11-04T15:25:35;49187.88;;;-144.47;87.33
31585;BME280;18191;51.288;12.390;2022-11-04T15:30:27;49209.75;;;-144.47;88.04
31585;BME280;18191;51.288;12.390;2022-11-04T15:35:17;49169.97;;;-144.47;88.81
31585;BME280;18191;51.288;12.390;2022-11-04T15:40:08;49191.84;;;-144.47;89.35
31585;BME280;18191;51.288;12.390;2022-11-04T15:50:15;49241.59;;;-144.47;90.36
31585;BME280;18191;51.288;12.390;2022-11-04T15:55:17;49203.78;;;-144.47;90.86
31585;BME280;18191;51.288;12.390;2022-11-04T16:20:23;49195.84;;;-144.47;93.08
31585;BME280;18191;51.288;12.390;2022-11-04T16:25:18;49179.91;;;-144.47;93.46
31585;BME280;18191;51.288;12.390;2022-11-04T16:30:18;49199.81;;;-144.47;93.34
31585;BME280;18191;51.288;12.390;2022-11-04T16:35:25;49209.75;;;-144.47;92.59
31585;BME280;18191;51.288;12.390;2022-11-04T16:40:16;49195.84;;;-144.47;92.89
31585;BME280;18191;51.288;12.390;2022-11-04T16:45:06;49199.81;;;-144.47;93.69
31585;BME280;18191;51.288;12.390;2022-11-04T16:50:00;49169.97;;;-144.47;94.06
31585;BME280;18191;51.288;12.390;2022-11-04T16:54:50;49199.81;;;-144.47;93.74
31585;BME280;18191;51.288;12.390;2022-11-04T16:59:41;49179.91;;;-144.47;93.68
31585;BME280;18191;51.288;12.390;2022-11-04T17:04:31;49189.88;;;-144.47;94.39
31585;BME280;18191;51.288;12.390;2022-11-04T17:09:22;49235.63;;;-144.47;93.23
31585;BME280;18191;51.288;12.390;2022-11-04T17:14:12;49209.75;;;-144.47;91.14
31585;BME280;18191;51.288;12.390;2022-11-04T17:19:02;49191.84;;;-144.47;91.35
31585;BME280;18191;51.288;12.390;2022-11-04T17:23:52;49227.66;;;-144.47;93.17
31585;BME280;18191;51.288;12.390;2022-11-04T17:28:45;49195.84;;;-144.47;93.49
31585;BME280;18191;51.288;12.390;2022-11-04T17:33:35;49211.75;;;-144.47;92.95
31585;BME280;18191;51.288;12.390;2022-11-04T17:38:25;49211.75;;;-144.47;94.02
31585;BME280;18191;51.288;12.390;2022-11-04T17:43:16;49175.94;;;-144.47;94.97
31585;BME280;18191;51.288;12.390;2022-11-04T17:48:25;49215.72;;;-144.47;94.84
31585;BME280;18191;51.288;12.390;2022-11-04T17:53:15;49209.75;;;-144.47;94.15
31585;BME280;18191;51.288;12.390;2022-11-04T17:58:05;49199.81;;;-144.47;92.79
31585;BME280;18191;51.288;12.390;2022-11-04T18:02:55;49183.91;;;-144.47;94.01
31585;BME280;18191;51.288;12.390;2022-11-04T18:07:45;49183.91;;;-144.47;94.95
31585;BME280;18191;51.288;12.390;2022-11-04T18:12:36;49231.63;;;-144.47;95.83
31585;BME280;18191;51.288;12.390;2022-11-04T18:17:26;49215.72;;;-144.47;96.01
31585;BME280;18191;51.288;12.390;2022-11-04T18:22:16;49219.72;;;-144.47;96.17
31585;BME280;18191;51.288;12.390;2022-11-04T18:27:07;49213.75;;;-144.47;95.90
31585;BME280;18191;51.288;12.390;2022-11-04T18:31:57;49195.84;;;-144.47;95.89
31585;BME280;18191;51.288;12.390;2022-11-04T18:36:47;49199.81;;;-144.47;96.39
31585;BME280;18191;51.288;12.390;2022-11-04T18:41:38;49211.75;;;-144.47;96.38
31585;BME280;18191;51.288;12.390;2022-11-04T18:46:31;49221.69;;;-144.47;95.66
31585;BME280;18191;51.288;12.390;2022-11-04T18:51:21;49195.84;;;-144.47;94.91
31585;BME280;18191;51.288;12.390;2022-11-04T18:56:13;49227.66;;;-144.47;95.15
31585;BME280;18191;51.288;12.390;2022-11-04T19:01:11;49195.84;;;-144.47;95.96
31585;BME280;18191;51.288;12.390;2022-11-04T19:06:05;49203.78;;;-144.47;96.30
31585;BME280;18191;51.288;12.390;2022-11-04T19:10:56;49217.72;;;-144.47;96.49
31585;BME280;18191;51.288;12.390;2022-11-04T19:15:46;49164.00;;;-144.47;96.66
31585;BME280;18191;51.288;12.390;2022-11-04T19:20:37;49219.72;;;-144.47;96.97
31585;BME280;18191;51.288;12.390;2022-11-04T19:25:27;49235.63;;;-144.47;96.49
31585;BME280;18191;51.288;12.390;2022-11-04T19:30:18;49207.78;;;-144.47;96.22
31585;BME280;18191;51.288;12.390;2022-11-04T19:35:08;49199.81;;;-144.47;95.75
31585;BME280;18191;51.288;12.390;2022-11-04T19:39:58;49191.84;;;-144.47;95.10
31585;BME280;18191;51.288;12.390;2022-11-04T19:44:49;49209.75;;;-144.47;95.72
31585;BME280;18191;51.288;12.390;2022-11-04T19:49:39;49199.81;;;-144.47;95.99
31585;BME280;18191;51.288;12.390;2022-11-04T19:54:29;49195.84;;;-144.47;95.86
31585;BME280;18191;51.288;12.390;2022-11-04T19:59:19;49227.66;;;-144.47;95.83
31585;BME280;18191;51.288;12.390;2022-11-04T20:04:10;49175.94;;;-144.47;96.01
31585;BME280;18191;51.288;12.390;2022-11-04T20:09:02;49247.56;;;-144.47;95.93
31585;BME280;18191;51.288;12.390;2022-11-04T20:13:54;49223.69;;;-144.47;95.87
31585;BME280;18191;51.288;12.390;2022-11-04T20:18:45;49233.63;;;-144.47;94.85
31585;BME280;18191;51.288;12.390;2022-11-04T20:23:35;49227.66;;;-144.47;94.99
31585;BME280;18191;51.288;12.390;2022-11-04T20:28:26;49235.63;;;-144.47;95.22
31585;BME280;18191;51.288;12.390;2022-11-04T20:33:16;49227.66;;;-144.47;95.07
31585;BME280;18191;51.288;12.390;2022-11-04T20:38:06;49211.75;;;-144.47;94.12
31585;BME280;18191;51.288;12.390;2022-11-04T20:42:58;49183.91;;;-144.47;93.48
31585;BME280;18191;51.288;12.390;2022-11-04T20:47:48;49193.84;;;-144.47;93.33
31585;BME280;18191;51.288;12.390;2022-11-04T20:52:39;49207.78;;;-144.47;92.62
31585;BME280;18191;51.288;12.390;2022-11-04T20:57:29;49179.91;;;-144.47;92.62
31585;BME280;18191;51.288;12.390;2022-11-04T21:02:19;49195.84;;;-144.47;92.39
31585;BME280;18191;51.288;12.390;2022-11-04T21:07:11;49215.72;;;-144.47;92.24
31585;BME280;18191;51.288;12.390;2022-11-04T21:12:02;49203.78;;;-144.47;91.11
31585;BME280;18191;51.288;12.390;2022-11-04T21:16:52;49189.88;;;-144.47;90.66
31585;BME280;18191;51.288;12.390;2022-11-04T21:21:42;49167.97;;;-144.47;90.21
31585;BME280;18191;51.288;12.390;2022-11-04T21:26:34;49227.66;;;-144.47;90.23
31585;BME280;18191;51.288;12.390;2022-11-04T21:31:24;49187.88;;;-144.47;90.26
31585;BME280;18191;51.288;12.390;2022-11-04T21:36:15;49181.91;;;-144.47;90.27
31585;BME280;18191;51.288;12.390;2022-11-04T21:41:09;49199.81;;;-144.47;91.14
31585;BME280;18191;51.288;12.390;2022-11-04T21:46:07;49171.97;;;-144.47;91.38
31585;BME280;18191;51.288;12.390;2022-11-04T21:50:59;49199.81;;;-144.47;91.35
31585;BME280;18191;51.288;12.390;2022-11-04T21:55:49;49211.75;;;-144.47;92.04
31585;BME280;18191;51.288;12.390;2022-11-04T22:00:39;49173.94;;;-144.47;92.36
31585;BME280;18191;51.288;12.390;2022-11-04T22:05:30;49251.53;;;-144.47;92.82
31585;BME280;18191;51.288;12.390;2022-11-04T22:10:20;49233.63;;;-144.47;92.48
31585;BME280;18191;51.288;12.390;2022-11-04T22:15:10;49203.78;;;-144.47;92.25
31585;BME280;18191;51.288;12.390;2022-11-04T22:20:01;49183.91;;;-144.47;92.25
31585;BME280;18191;51.288;12.390;2022-11-04T22:24:51;49203.78;;;-144.47;92.97
31585;BME280;18191;51.288;12.390;2022-11-04T22:29:53;49175.94;;;-144.47;93.04
31585;BME280;18191;51.288;12.390;2022-11-04T22:34:43;49215.72;;;-144.47;92.39
31585;BME280;18191;51.288;12.390;2022-11-04T22:39:33;49255.50;;;-144.47;92.35
31585;BME280;18191;51.288;12.390;2022-11-04T22:44:24;49259.50;;;-144.47;92.72
31585;BME280;18191;51.288;12.390;2022-11-04T22:49:14;49231.63;;;-144.47;91.82
31585;BME280;18191;51.288;12.390;2022-11-04T22:54:04;49223.69;;;-144.47;91.60
31585;BME280;18191;51.288;12.390;2022-11-04T22:58:54;49199.81;;;-144.47;89.29
31585;BME280;18191;51.288;12.390;2022-11-04T23:03:44;49243.56;;;-144.47;90.30
31585;BME280;18191;51.288;12.390;2022-11-04T23:08:35;49219.72;;;-144.47;91.23
31585;BME280;18191;51.288;12.390;2022-11-04T23:13:26;49195.84;;;-144.47;92.27
31585;BME280;18191;51.288;12.390;2022-11-04T23:18:35;49217.72;;;-144.47;92.83
31585;BME280;18191;51.288;12.390;2022-11-04T23:23:31;49211.75;;;-144.47;93.11
31585;BME280;18191;51.288;12.390;2022-11-04T23:28:39;49203.78;;;-144.47;93.00
31585;BME280;18191;51.288;12.390;2022-11-04T23:33:48;49227.66;;;-144.47;93.24
31585;BME280;18191;51.288;12.390;2022-11-04T23:38:57;49171.97;;;-144.47;93.96
31585;BME280;18191;51.288;12.390;2022-11-04T23:43:48;49207.78;;;-144.47;92.92
31585;BME280;18191;51.288;12.390;2022-11-04T23:48:38;49223.69;;;-144.47;94.40
31585;BME280;18191;51.288;12.390;2022-11-04T23:53:47;49219.72;;;-144.47;95.45
31585;BME280;18191;51.288;12.390;2022-11-04T23:58:56;49223.69;;;-144.47;95.37
